createdAt,value
2023-02-12T00:01:10.229Z,121.70
2023-02-12T00:03:39.959Z,118.53
2023-02-12T00:06:09.180Z,138.13
2023-02-12T00:08:37.402Z,129.48
2023-02-12T00:11:10.543Z,131.80
2023-02-12T00:13:38.485Z,128.77
2023-02-12T00:16:08.691Z,127.10
2023-02-12T00:18:37.031Z,128.20
2023-02-12T00:21:08.785Z,135.23
2023-02-12T00:23:37.211Z,118.72
2023-02-12T00:26:07.453Z,106.22
2023-02-12T00:28:35.487Z,115.18
2023-02-12T00:31:07.851Z,121.60
2023-02-12T00:33:35.866Z,124.82
2023-02-12T00:36:06.561Z,122.47
2023-02-12T00:38:34.980Z,118.35
2023-02-12T00:41:03.160Z,122.93
2023-02-12T00:43:31.137Z,125.40
2023-02-12T00:45:59.536Z,130.27
2023-02-12T00:48:27.665Z,110.97
2023-02-12T00:50:55.955Z,95.55
2023-02-12T00:53:25.254Z,101.55
2023-02-12T00:55:53.923Z,104.97
2023-02-12T00:58:21.978Z,101.50
2023-02-12T01:00:50.198Z,103.40
2023-02-12T01:03:18.328Z,98.28
2023-02-12T01:05:46.778Z,104.55
2023-02-12T01:08:16.447Z,104.65
2023-02-12T01:10:46.016Z,101.30
2023-02-12T01:13:14.563Z,88.43
2023-02-12T01:15:43.588Z,88.80
2023-02-12T01:18:12.736Z,101.97
2023-02-12T01:20:41.125Z,99.10
2023-02-12T01:23:09.443Z,97.30
2023-02-12T01:25:39.279Z,95.50
2023-02-12T01:28:08.609Z,102.90
2023-02-12T01:30:36.797Z,91.60
2023-02-12T01:33:04.755Z,95.10
2023-02-12T01:35:32.927Z,93.07
2023-02-12T01:38:01.036Z,91.13
2023-02-12T01:40:29.267Z,93.38
2023-02-12T01:42:57.158Z,93.60
2023-02-12T01:45:47.768Z,85.30
2023-02-12T01:48:17.799Z,93.07
2023-02-12T01:50:47.328Z,95.53
2023-02-12T01:53:20.352Z,89.15
2023-02-12T01:55:54.518Z,80.90
2023-02-12T01:58:22.701Z,86.68
2023-02-12T02:03:42.432Z,84.47
2023-02-12T02:06:13.338Z,89.82
2023-02-12T02:08:42.078Z,95.80
2023-02-12T02:11:24.599Z,89.95
2023-02-12T02:14:10.111Z,85.50
2023-02-12T02:16:38.591Z,87.57
2023-02-12T02:19:13.383Z,90.18
2023-02-12T02:21:58.826Z,91.50
2023-02-12T02:24:54.780Z,94.95
2023-02-12T02:27:28.919Z,97.20
2023-02-12T02:30:24.885Z,89.53
2023-02-12T02:32:58.650Z,87.65
2023-02-12T02:35:30.747Z,98.85
2023-02-12T02:40:34.821Z,95.32
2023-02-12T02:43:07.186Z,95.28
2023-02-12T02:45:40.336Z,96.22
2023-02-12T02:48:13.859Z,96.43
2023-02-12T02:50:44.868Z,97.90
2023-02-12T02:53:15.625Z,105.63
2023-02-12T02:55:46.466Z,101.40
2023-02-12T02:58:18.604Z,103.50
2023-02-12T03:00:50.135Z,106.20
2023-02-12T03:03:22.684Z,105.78
2023-02-12T03:05:53.238Z,98.43
2023-02-12T03:08:25.199Z,93.63
2023-02-12T03:10:55.941Z,95.15
2023-02-12T03:13:27.881Z,99.77
2023-02-12T03:16:01.270Z,75.25
2023-02-12T03:18:31.951Z,90.88
2023-02-12T03:21:02.049Z,105.10
2023-02-12T03:23:35.881Z,104.65
2023-02-12T03:26:07.367Z,97.15
2023-02-12T03:28:37.338Z,105.90
2023-02-12T03:31:13.205Z,101.40
2023-02-12T03:33:47.810Z,107.78
2023-02-12T03:36:24.060Z,111.85
2023-02-12T03:38:55.530Z,101.35
2023-02-12T03:41:28.576Z,76.28
2023-02-12T03:44:00.506Z,96.28
2023-02-12T03:46:34.300Z,101.55
2023-02-12T03:49:05.048Z,111.22
2023-02-12T03:51:36.612Z,106.38
2023-02-12T03:54:06.132Z,105.30
2023-02-12T03:56:38.716Z,109.53
2023-02-12T03:59:07.184Z,110.95
2023-02-12T04:01:37.078Z,103.40
2023-02-12T04:04:07.417Z,108.53
2023-02-12T04:06:35.666Z,106.00
2023-02-12T04:09:06.880Z,105.07
2023-02-12T04:11:39.946Z,104.15
2023-02-12T04:14:15.387Z,106.18
2023-02-12T04:16:50.193Z,113.95
2023-02-12T04:19:25.708Z,115.70
2023-02-12T04:22:02.119Z,114.70
2023-02-12T04:24:37.562Z,104.07
2023-02-12T04:27:10.587Z,120.25
2023-02-12T04:29:44.341Z,106.07
2023-02-12T04:32:16.992Z,115.47
2023-02-12T04:34:50.367Z,120.72
2023-02-12T04:37:21.489Z,121.03
2023-02-12T04:39:50.448Z,118.33
2023-02-12T04:42:18.665Z,119.53
2023-02-12T04:44:47.160Z,102.97
2023-02-12T04:47:17.255Z,105.68
2023-02-12T04:49:45.445Z,104.65
2023-02-12T04:52:13.471Z,106.88
2023-02-12T04:54:41.634Z,105.28
2023-02-12T04:57:10.439Z,111.00
2023-02-12T04:59:38.698Z,108.82
2023-02-12T05:02:06.610Z,96.07
2023-02-12T05:04:36.140Z,114.75
2023-02-12T05:07:04.149Z,110.40
2023-02-12T05:09:32.371Z,96.60
2023-02-12T05:12:00.267Z,93.65
2023-02-12T05:14:28.435Z,108.80
2023-02-12T05:16:56.549Z,89.20
2023-02-12T05:19:24.725Z,90.60
2023-02-12T05:21:54.115Z,93.95
2023-02-12T05:24:22.440Z,90.45
2023-02-12T05:26:50.727Z,92.15
2023-02-12T05:29:19.341Z,75.47
2023-02-12T05:31:47.581Z,79.28
2023-02-12T05:34:16.072Z,71.28
2023-02-12T05:36:43.993Z,87.47
2023-02-12T05:39:13.509Z,77.35
2023-02-12T05:41:41.432Z,82.63
2023-02-12T05:44:11.906Z,60.13
2023-02-12T05:46:40.387Z,67.40
2023-02-12T05:49:08.627Z,82.50
2023-02-12T05:51:36.903Z,83.43
2023-02-12T05:54:06.800Z,88.28
2023-02-12T05:56:37.358Z,80.18
2023-02-12T05:59:07.624Z,68.75
2023-02-12T06:01:37.735Z,69.00
2023-02-12T06:04:07.947Z,39.85
2023-02-12T06:06:36.738Z,47.08
2023-02-12T06:09:05.318Z,39.00
2023-02-12T06:11:33.215Z,32.17
2023-02-12T06:14:04.877Z,36.15
2023-02-12T06:16:33.455Z,37.90
2023-02-12T06:19:04.157Z,32.40
2023-02-12T06:21:32.770Z,28.20
2023-02-12T06:24:01.297Z,35.13
2023-02-12T06:26:29.591Z,34.20
2023-02-12T06:28:57.812Z,22.70
2023-02-12T06:31:29.250Z,20.52
2023-02-12T06:33:59.583Z,27.38
2023-02-12T06:36:27.544Z,27.33
2023-02-12T06:38:56.042Z,20.38
2023-02-12T06:41:24.361Z,25.58
2023-02-12T06:43:52.528Z,23.65
2023-02-12T06:46:21.204Z,16.67
2023-02-12T06:48:54.251Z,17.60
2023-02-12T06:51:23.502Z,23.10
2023-02-12T06:53:52.496Z,21.10
2023-02-12T06:56:20.997Z,23.08
2023-02-12T06:58:53.904Z,20.48
2023-02-12T07:01:23.646Z,22.58
2023-02-12T07:03:55.269Z,20.13
2023-02-12T07:06:24.041Z,22.87
2023-02-12T07:08:52.433Z,27.65
2023-02-12T07:11:24.404Z,27.33
2023-02-12T07:13:52.827Z,24.48
2023-02-12T07:16:21.025Z,35.95
2023-02-12T07:18:49.291Z,32.65
2023-02-12T07:21:19.503Z,30.58
2023-02-12T07:23:50.794Z,29.27
2023-02-12T07:26:19.564Z,24.80
2023-02-12T07:28:47.904Z,24.70
2023-02-12T07:31:17.504Z,26.17
2023-02-12T07:33:46.366Z,25.83
2023-02-12T07:36:15.940Z,22.10
2023-02-12T07:38:45.721Z,25.63
2023-02-12T07:41:15.278Z,43.15
2023-02-12T07:43:44.858Z,30.73
2023-02-12T07:46:14.449Z,30.38
2023-02-12T07:48:42.756Z,23.10
2023-02-12T07:51:12.192Z,29.08
2023-02-12T07:53:41.059Z,30.67
2023-02-12T07:56:12.653Z,22.13
2023-02-12T07:58:41.902Z,18.30
2023-02-12T08:01:19.042Z,16.50
2023-02-12T08:03:48.143Z,16.77
2023-02-12T08:06:17.534Z,18.25
2023-02-12T08:08:45.939Z,22.48
2023-02-12T08:11:16.597Z,24.48
2023-02-12T08:13:45.376Z,20.67
2023-02-12T08:16:15.120Z,17.25
2023-02-12T08:18:43.587Z,18.48
2023-02-12T08:21:13.476Z,16.33
2023-02-12T08:23:42.027Z,18.13
2023-02-12T08:26:12.415Z,16.48
2023-02-12T08:28:43.698Z,24.63
2023-02-12T08:31:14.817Z,19.20
2023-02-12T08:33:43.347Z,19.67
2023-02-12T08:36:13.259Z,21.52
2023-02-12T08:38:41.523Z,19.73
2023-02-12T08:41:11.347Z,25.90
2023-02-12T08:43:41.603Z,23.00
2023-02-12T08:46:10.961Z,18.77
2023-02-12T08:48:39.587Z,22.38
2023-02-12T08:51:09.332Z,34.08
2023-02-12T08:53:38.283Z,29.95
2023-02-12T08:56:07.002Z,21.65
2023-02-12T08:58:35.447Z,19.85
2023-02-12T09:01:05.682Z,17.77
2023-02-12T09:03:33.878Z,16.55
2023-02-12T09:06:03.795Z,25.77
2023-02-12T09:08:32.334Z,18.75
2023-02-12T09:11:00.404Z,23.13
2023-02-12T09:13:28.556Z,24.35
2023-02-12T09:15:56.743Z,15.45
2023-02-12T09:18:26.449Z,19.25
2023-02-12T09:20:54.464Z,13.48
2023-02-12T09:23:22.786Z,14.00
2023-02-12T09:25:50.729Z,16.85
2023-02-12T09:28:19.016Z,20.95
2023-02-12T09:30:47.046Z,32.13
2023-02-12T09:33:15.300Z,35.40
2023-02-12T09:35:44.568Z,51.30
2023-02-12T09:38:12.825Z,17.33
2023-02-12T09:40:45.970Z,11.77
2023-02-12T09:43:19.854Z,21.30
2023-02-12T09:45:52.488Z,10.40
2023-02-12T09:48:44.136Z,23.75
2023-02-12T09:51:14.113Z,14.85
2023-02-12T09:53:46.762Z,16.05
2023-02-12T09:56:16.411Z,11.35
2023-02-12T09:58:47.609Z,25.60
2023-02-12T10:01:17.634Z,9.65
2023-02-12T10:03:46.201Z,16.88
2023-02-12T10:06:18.987Z,14.75
2023-02-12T10:08:59.074Z,18.48
2023-02-12T10:11:38.880Z,11.57
2023-02-12T10:14:21.025Z,39.53
2023-02-12T10:16:56.919Z,59.83
2023-02-12T10:19:37.236Z,21.65
2023-02-12T10:22:14.622Z,12.13
2023-02-12T10:24:52.423Z,14.85
2023-02-12T10:27:27.151Z,21.73
2023-02-12T10:29:58.215Z,8.57
2023-02-12T10:32:29.585Z,9.45
2023-02-12T10:34:58.727Z,12.15
2023-02-12T10:37:33.379Z,11.80
2023-02-12T10:40:04.619Z,12.32
2023-02-12T10:42:38.995Z,9.50
2023-02-12T10:45:12.782Z,13.10
2023-02-12T10:47:40.902Z,12.35
2023-02-12T10:50:18.978Z,11.70
2023-02-12T10:52:49.807Z,10.27
2023-02-12T10:55:27.238Z,10.10
2023-02-12T10:57:56.161Z,8.48
2023-02-12T11:00:27.865Z,8.93
2023-02-12T11:03:06.079Z,8.37
2023-02-12T11:05:36.665Z,11.77
2023-02-12T11:08:06.846Z,9.80
2023-02-12T11:10:39.637Z,8.48
2023-02-12T11:13:08.567Z,12.52
2023-02-12T11:15:39.904Z,10.07
2023-02-12T11:18:09.630Z,10.95
2023-02-12T11:20:40.994Z,10.50
2023-02-12T11:23:25.608Z,11.88
2023-02-12T11:25:59.168Z,14.15
2023-02-12T11:28:27.534Z,10.90
2023-02-12T11:30:58.172Z,13.13
2023-02-12T11:33:32.431Z,11.95
2023-02-12T11:36:06.850Z,10.45
2023-02-12T11:38:39.082Z,8.95
2023-02-12T11:43:39.536Z,16.17
2023-02-12T11:46:09.207Z,12.70
2023-02-12T11:48:39.838Z,10.73
2023-02-12T11:51:10.608Z,10.95
2023-02-12T11:53:43.055Z,12.57
2023-02-12T11:56:13.091Z,22.17
2023-02-12T11:58:41.231Z,14.68
2023-02-12T12:01:13.878Z,16.05
2023-02-12T12:03:46.936Z,15.50
2023-02-12T12:06:25.386Z,15.00
2023-02-12T12:08:59.411Z,16.65
2023-02-12T12:11:30.886Z,20.55
2023-02-12T12:14:02.917Z,13.73
2023-02-12T12:19:50.865Z,13.00
2023-02-12T12:22:28.547Z,12.50
2023-02-12T12:25:01.671Z,16.80
2023-02-12T12:27:54.357Z,16.58
2023-02-12T12:30:37.429Z,15.02
2023-02-12T12:33:07.999Z,19.48
2023-02-12T12:35:44.666Z,17.88
2023-02-12T12:38:21.839Z,14.73
2023-02-12T12:41:01.697Z,13.43
2023-02-12T12:43:42.506Z,17.02
2023-02-12T12:46:26.535Z,13.65
2023-02-12T12:49:16.876Z,15.95
2023-02-12T12:52:13.614Z,14.48
2023-02-12T12:54:56.925Z,15.85
2023-02-12T12:57:38.621Z,20.73
2023-02-12T13:00:19.743Z,16.77
2023-02-12T13:03:23.033Z,20.75
2023-02-12T13:06:12.430Z,24.70
2023-02-12T13:08:58.963Z,22.33
2023-02-12T13:11:36.553Z,14.80
2023-02-12T13:14:15.280Z,16.40
2023-02-12T13:16:47.374Z,16.48
2023-02-12T13:19:19.860Z,17.63
2023-02-12T13:21:52.499Z,14.95
2023-02-12T13:24:28.585Z,13.55
2023-02-12T13:26:59.147Z,12.10
2023-02-12T13:29:32.525Z,19.55
2023-02-12T13:32:06.082Z,19.17
2023-02-12T13:34:36.080Z,16.88
2023-02-12T13:37:05.846Z,17.98
2023-02-12T13:39:37.457Z,19.60
2023-02-12T13:42:18.104Z,13.88
2023-02-12T13:44:52.116Z,15.30
2023-02-12T13:47:30.126Z,13.50
2023-02-12T13:50:03.971Z,13.45
2023-02-12T13:52:37.005Z,14.43
2023-02-12T13:55:22.873Z,19.83
2023-02-12T13:58:24.608Z,14.48
2023-02-12T14:01:02.913Z,14.77
2023-02-12T14:03:32.548Z,12.80
2023-02-12T14:06:11.747Z,15.82
2023-02-12T14:08:42.277Z,14.25
2023-02-12T14:11:12.078Z,14.57
2023-02-12T14:13:50.075Z,19.08
2023-02-12T14:16:40.666Z,16.90
2023-02-12T14:19:46.615Z,18.15
2023-02-12T14:22:15.270Z,15.65
2023-02-12T14:24:51.984Z,12.30
2023-02-12T14:27:35.888Z,15.85
2023-02-12T14:30:26.913Z,17.30
2023-02-12T14:33:11.175Z,18.63
2023-02-12T14:35:40.445Z,31.13
2023-02-12T14:38:47.509Z,18.38
2023-02-12T14:41:34.139Z,36.75
2023-02-12T14:44:44.799Z,25.23
2023-02-12T14:47:17.300Z,30.60
2023-02-12T14:49:48.410Z,24.98
2023-02-12T14:52:18.355Z,19.77
2023-02-12T14:54:48.946Z,19.50
2023-02-12T14:57:25.086Z,22.83
2023-02-12T14:59:54.197Z,20.58
2023-02-12T15:02:26.757Z,16.77
2023-02-12T15:07:30.689Z,18.60
2023-02-12T15:10:07.344Z,12.57
2023-02-12T15:12:38.695Z,12.93
2023-02-12T15:15:13.081Z,13.55
2023-02-12T15:17:43.252Z,17.70
2023-02-12T15:20:23.720Z,22.92
2023-02-12T15:22:52.046Z,18.05
2023-02-12T15:25:24.933Z,23.10
2023-02-12T15:27:56.518Z,23.40
2023-02-12T15:30:26.973Z,16.90
2023-02-12T15:32:56.865Z,21.05
2023-02-12T15:35:27.900Z,16.92
2023-02-12T15:37:56.854Z,17.30
2023-02-12T15:40:25.046Z,17.50
2023-02-12T15:42:55.999Z,20.85
2023-02-12T15:45:26.271Z,26.38
2023-02-12T15:48:03.978Z,24.42
2023-02-12T15:50:34.351Z,25.33
2023-02-12T15:53:02.890Z,28.75
2023-02-12T15:55:36.754Z,25.35
2023-02-12T15:58:05.161Z,28.55
2023-02-12T16:00:38.570Z,27.98
2023-02-12T16:03:06.902Z,29.15
2023-02-12T16:05:36.234Z,25.05
2023-02-12T16:08:04.580Z,32.72
2023-02-12T16:10:32.778Z,27.45
2023-02-12T16:13:01.132Z,28.08
2023-02-12T16:15:31.272Z,26.55
2023-02-12T16:18:04.044Z,26.98
2023-02-12T16:20:33.149Z,23.88
2023-02-12T16:23:07.312Z,23.17
2023-02-12T16:25:35.446Z,25.83
2023-02-12T16:28:05.851Z,28.33
2023-02-12T16:30:38.754Z,27.30
2023-02-12T16:33:34.891Z,28.35
2023-02-12T16:36:04.276Z,24.40
2023-02-12T16:38:43.566Z,33.72
2023-02-12T16:41:24.541Z,23.98
2023-02-12T16:44:22.452Z,25.08
2023-02-12T16:46:52.599Z,24.10
2023-02-12T16:49:24.228Z,25.65
2023-02-12T16:51:53.704Z,31.73
2023-02-12T16:54:30.608Z,34.17
2023-02-12T16:56:59.194Z,28.98
2023-02-12T16:59:27.685Z,28.55
2023-02-12T17:02:01.269Z,30.40
2023-02-12T17:04:31.460Z,29.90
2023-02-12T17:06:59.718Z,32.25
2023-02-12T17:09:29.642Z,29.02
2023-02-12T17:11:57.969Z,31.95
2023-02-12T17:14:26.225Z,21.08
2023-02-12T17:16:54.116Z,29.63
2023-02-12T17:19:22.871Z,32.72
2023-02-12T17:21:52.355Z,26.02
2023-02-12T17:24:22.921Z,27.75
2023-02-12T17:26:51.292Z,31.58
2023-02-12T17:29:20.311Z,34.08
2023-02-12T17:31:49.111Z,32.88
2023-02-12T17:34:17.762Z,31.73
2023-02-12T17:36:45.657Z,39.13
2023-02-12T17:39:16.213Z,45.90
2023-02-12T17:41:45.107Z,46.10
2023-02-12T17:44:14.929Z,44.58
2023-02-12T17:46:43.493Z,43.63
2023-02-12T17:49:11.822Z,41.50
2023-02-12T17:51:39.898Z,38.80
2023-02-12T17:54:08.082Z,38.45
2023-02-12T17:56:37.470Z,45.35
2023-02-12T17:59:05.649Z,53.72
2023-02-12T18:01:34.545Z,57.80
2023-02-12T18:04:02.976Z,62.65
2023-02-12T18:06:31.833Z,62.40
2023-02-12T18:09:01.644Z,59.33
2023-02-12T18:11:30.293Z,70.63
2023-02-12T18:14:00.541Z,59.25
2023-02-12T18:16:30.231Z,56.33
2023-02-12T18:18:59.806Z,57.83
2023-02-12T18:21:28.115Z,70.40
2023-02-12T18:23:56.368Z,57.83
2023-02-12T18:26:24.479Z,61.28
2023-02-12T18:28:53.776Z,60.72
2023-02-12T18:31:23.140Z,58.65
2023-02-12T18:33:51.654Z,67.82
2023-02-12T18:36:21.627Z,61.15
2023-02-12T18:38:51.174Z,64.07
2023-02-12T18:41:21.001Z,61.90
2023-02-12T18:43:49.555Z,58.90
2023-02-12T18:46:19.410Z,65.80
2023-02-12T18:48:49.851Z,68.20
2023-02-12T18:51:21.010Z,61.97
2023-02-12T18:53:49.806Z,65.23
2023-02-12T18:56:17.814Z,53.63
2023-02-12T18:58:45.975Z,54.25
2023-02-12T19:01:14.871Z,49.50
2023-02-12T19:03:43.441Z,51.92
2023-02-12T19:06:13.094Z,48.08
2023-02-12T19:08:41.550Z,45.40
2023-02-12T19:11:10.518Z,41.28
2023-02-12T19:13:39.185Z,43.38
2023-02-12T19:16:08.332Z,45.22
2023-02-12T19:18:36.658Z,45.28
2023-02-12T19:21:07.052Z,42.92
2023-02-12T19:23:36.901Z,41.03
2023-02-12T19:26:05.620Z,39.85
2023-02-12T19:28:35.322Z,39.35
2023-02-12T19:31:11.438Z,40.83
2023-02-12T19:33:40.967Z,38.13
2023-02-12T19:36:11.322Z,39.00
2023-02-12T19:38:41.018Z,39.13
2023-02-12T19:41:10.972Z,36.30
2023-02-12T19:43:39.427Z,40.40
2023-02-12T19:46:09.379Z,41.90
2023-02-12T19:48:38.190Z,44.08
2023-02-12T19:51:07.003Z,46.25
2023-02-12T19:53:35.185Z,42.75
2023-02-12T19:56:05.363Z,46.33
2023-02-12T19:58:33.634Z,40.90
2023-02-12T20:01:01.727Z,40.38
2023-02-12T20:03:29.915Z,47.28
2023-02-12T20:06:01.616Z,40.85
2023-02-12T20:08:29.910Z,61.30
2023-02-12T20:10:58.142Z,47.03
2023-02-12T20:13:27.898Z,58.28
2023-02-12T20:15:55.874Z,51.58
2023-02-12T20:18:24.329Z,44.88
2023-02-12T20:20:52.293Z,40.15
2023-02-12T20:23:20.690Z,41.22
2023-02-12T20:25:48.794Z,45.90
2023-02-12T20:28:17.077Z,52.38
2023-02-12T20:30:46.864Z,50.75
2023-02-12T20:33:15.283Z,61.47
2023-02-12T20:35:43.185Z,51.33
2023-02-12T20:38:11.877Z,55.50
2023-02-12T20:40:39.872Z,49.45
2023-02-12T20:43:08.059Z,54.13
2023-02-12T20:45:36.200Z,41.95
2023-02-12T20:48:05.788Z,40.97
2023-02-12T20:50:34.510Z,47.15
2023-02-12T20:53:03.171Z,46.17
2023-02-12T20:55:31.067Z,41.78
2023-02-12T20:57:59.294Z,44.30
2023-02-12T21:00:27.407Z,53.95
2023-02-12T21:02:55.888Z,51.50
2023-02-12T21:05:25.210Z,50.38
2023-02-12T21:07:53.861Z,41.75
2023-02-12T21:10:23.203Z,42.83
2023-02-12T21:12:51.445Z,39.88
2023-02-12T21:15:19.374Z,47.45
2023-02-12T21:17:47.566Z,42.70
2023-02-12T21:20:15.481Z,56.20
2023-02-12T21:22:45.591Z,55.65
2023-02-12T21:25:13.485Z,53.38
2023-02-12T21:27:42.025Z,49.20
2023-02-12T21:30:10.774Z,53.30
2023-02-12T21:32:38.974Z,43.55
2023-02-12T21:35:07.540Z,43.05
2023-02-12T21:37:35.866Z,55.88
2023-02-12T21:40:06.010Z,50.63
2023-02-12T21:42:34.175Z,45.92
2023-02-12T21:45:02.119Z,45.08
2023-02-12T21:47:31.160Z,45.28
2023-02-12T21:49:59.070Z,47.95
2023-02-12T21:52:27.272Z,44.42
2023-02-12T21:54:57.040Z,40.35
2023-02-12T21:57:26.623Z,41.08
2023-02-12T21:59:54.570Z,45.67
2023-02-12T22:02:23.459Z,45.63
2023-02-12T22:04:54.893Z,47.70
2023-02-12T22:07:23.047Z,48.20
2023-02-12T22:09:50.933Z,45.05
2023-02-12T22:12:19.423Z,44.17
2023-02-12T22:14:48.738Z,42.97
2023-02-12T22:17:16.881Z,49.65
2023-02-12T22:19:44.935Z,58.40
2023-02-12T22:22:13.137Z,63.30
2023-02-12T22:24:41.182Z,65.15
2023-02-12T22:27:09.402Z,52.88
2023-02-12T22:29:37.567Z,52.70
2023-02-12T22:32:07.129Z,50.13
2023-02-12T22:34:35.164Z,48.90
2023-02-12T22:37:03.362Z,41.63
2023-02-12T22:39:31.381Z,46.17
2023-02-12T22:41:59.559Z,41.28
2023-02-12T22:44:27.627Z,38.28
2023-02-12T22:46:55.820Z,45.67
2023-02-12T22:49:25.343Z,43.75
2023-02-12T22:51:53.609Z,36.15
2023-02-12T22:54:21.549Z,37.47
2023-02-12T22:56:52.046Z,39.97
2023-02-12T22:59:20.081Z,39.10
2023-02-12T23:01:48.308Z,44.20
2023-02-12T23:04:16.832Z,47.03
2023-02-12T23:06:46.789Z,41.92
2023-02-12T23:09:16.753Z,37.78
2023-02-12T23:11:44.984Z,56.25
2023-02-12T23:14:13.050Z,53.00
2023-02-12T23:16:41.267Z,59.40
2023-02-12T23:19:11.002Z,58.45
2023-02-12T23:21:39.209Z,49.63
2023-02-12T23:24:10.899Z,46.00
2023-02-12T23:26:39.076Z,54.50
2023-02-12T23:29:07.007Z,52.60
2023-02-12T23:31:35.301Z,53.53
2023-02-12T23:34:03.343Z,54.08
2023-02-12T23:36:31.529Z,49.72
2023-02-12T23:38:59.992Z,42.78
2023-02-12T23:41:29.495Z,47.05
2023-02-12T23:43:57.594Z,50.20
2023-02-12T23:46:25.881Z,58.85
2023-02-12T23:48:53.844Z,43.10
2023-02-12T23:51:22.066Z,52.67
2023-02-12T23:53:49.997Z,60.42
2023-02-12T23:56:18.182Z,67.47
2023-02-12T23:58:47.601Z,58.83
